Other Surface Observations
Issued by NWS Great Falls, MT

Home | Current Version | Previous Version | Text Only | Print | Product List | Glossary On
Versions: 1 2 3 4 5 6 7 8 9 10 11 12 13 14 15 16 17 18 19 20 21 22 23 24 25 26 27 28 29 30 31 32 33 34 35 36 37 38 39 40 41 42 43 44 45 46 47 48 49 50
408
SXUS55 KTFX 230745
OSOTFX

AREA AWOS OBSERVATIONS
NATIONAL WEATHER SERVICE GREAT FALLS MT
0144 AM MDT Wed May 23 2018

METAR K3U3 230743Z AUTO 21004KT 09/07 A2999
METAR KS71 230743Z AUTO 30000KT 10SM 12/11 A2992
METAR K38S 230744Z AUTO 26006KT 10SM 08/08 A3000
METAR K6S5 230744Z AUTO 17004 10SM 12/09 A2993
METAR K1S3 230743Z AUTO 32000KT 17/14 A2989
METAR KPWD 230744Z AUTO 10000KT 10SM 16/08 A2994
METAR KPO1 230559Z AUTO 10005KT  10SM 17/10 A2993



USA.gov is the U.S. government's official web portal to all federal, state and local government web resources and services.